createdAt,value
2023-05-21T00:00:51.705Z,38.68
2023-05-21T00:05:54.817Z,38.80
2023-05-21T00:10:57.760Z,38.63
2023-05-21T00:16:02.032Z,38.75
2023-05-21T00:21:04.904Z,38.86
2023-05-21T00:26:07.751Z,38.69
2023-05-21T00:31:12.230Z,38.97
2023-05-21T00:36:15.317Z,38.77
2023-05-21T00:41:18.679Z,38.89
2023-05-21T00:46:23.729Z,38.84
2023-05-21T00:51:30.399Z,38.81
2023-05-21T00:56:33.683Z,38.81
2023-05-21T01:01:37.956Z,38.84
2023-05-21T01:06:42.603Z,38.96
2023-05-21T01:11:49.769Z,38.86
2023-05-21T01:16:54.642Z,38.83
2023-05-21T01:22:01.334Z,38.97
2023-05-21T01:27:07.660Z,38.78
2023-05-21T01:32:15.046Z,38.86
2023-05-21T01:37:22.632Z,38.95
2023-05-21T01:42:26.991Z,38.98
2023-05-21T01:47:31.211Z,38.98
2023-05-21T01:52:34.125Z,38.99
2023-05-21T01:57:38.367Z,38.99
2023-05-21T02:02:41.408Z,39.04
2023-05-21T02:07:46.027Z,38.93
2023-05-21T02:12:50.370Z,38.87
2023-05-21T02:17:53.331Z,38.90
2023-05-21T02:22:56.205Z,39.01
2023-05-21T02:28:00.961Z,39.05
2023-05-21T02:33:03.862Z,38.97
2023-05-21T02:38:09.124Z,38.99
2023-05-21T02:43:15.896Z,38.93
2023-05-21T02:48:19.055Z,39.10
2023-05-21T02:53:21.879Z,39.01
2023-05-21T02:58:26.115Z,39.07
2023-05-21T03:03:29.045Z,39.09
2023-05-21T03:08:32.409Z,38.89
2023-05-21T03:13:36.732Z,38.92
2023-05-21T03:18:39.626Z,39.05
2023-05-21T03:23:43.849Z,39.06
2023-05-21T03:28:49.490Z,38.92
2023-05-21T03:33:54.646Z,38.96
2023-05-21T03:38:58.612Z,38.96
2023-05-21T03:44:03.026Z,38.96
2023-05-21T03:49:05.955Z,38.98
2023-05-21T03:54:11.292Z,39.03
2023-05-21T03:59:15.497Z,38.98
2023-05-21T04:04:18.448Z,38.91
2023-05-21T04:09:21.311Z,39.07
2023-05-21T04:14:25.541Z,38.99
2023-05-21T04:19:28.463Z,39.04
2023-05-21T04:24:31.575Z,38.99
2023-05-21T04:29:37.615Z,39.03
2023-05-21T04:34:40.571Z,38.78
2023-05-21T04:39:43.399Z,38.98
2023-05-21T04:44:49.031Z,38.91
2023-05-21T04:49:51.915Z,38.92
2023-05-21T04:54:55.106Z,38.92
2023-05-21T04:59:59.306Z,38.94
2023-05-21T05:05:02.188Z,38.95
2023-05-21T05:10:07.283Z,38.92
2023-05-21T05:15:13.462Z,38.88
2023-05-21T05:20:16.390Z,38.84
2023-05-21T05:25:19.876Z,38.91
2023-05-21T05:30:24.056Z,38.96
2023-05-21T05:35:26.889Z,38.74
2023-05-21T05:40:29.770Z,38.84
2023-05-21T05:45:34.137Z,38.73
2023-05-21T05:50:37.755Z,38.82
2023-05-21T05:55:40.789Z,38.69
2023-05-21T06:00:45.074Z,38.63
2023-05-21T06:05:50.085Z,38.63
2023-05-21T06:10:53.008Z,38.72
2023-05-21T06:15:57.477Z,38.53
2023-05-21T06:21:00.495Z,38.74
2023-05-21T06:26:03.350Z,38.47
2023-05-21T06:31:07.744Z,38.52
2023-05-21T06:36:11.369Z,38.51
2023-05-21T06:41:14.524Z,38.50
2023-05-21T06:46:18.973Z,38.46
2023-05-21T06:51:23.172Z,38.40
2023-05-21T06:56:26.461Z,38.60
2023-05-21T07:01:30.815Z,38.49
2023-05-21T07:06:35.979Z,38.46
2023-05-21T07:11:38.948Z,38.51
2023-05-21T07:16:43.364Z,38.55
2023-05-21T07:21:47.005Z,38.63
2023-05-21T07:26:50.191Z,38.58
2023-05-21T07:31:56.296Z,38.58
2023-05-21T07:36:59.248Z,38.63
2023-05-21T07:42:02.170Z,38.53
2023-05-21T07:47:06.531Z,38.47
2023-05-21T07:52:10.111Z,38.52
2023-05-21T07:57:12.992Z,38.58
2023-05-21T08:02:17.213Z,38.61
2023-05-21T08:07:21.954Z,38.37
2023-05-21T08:12:24.997Z,38.72
2023-05-21T08:17:30.621Z,38.55
2023-05-21T08:22:33.567Z,38.63
2023-05-21T08:27:37.669Z,38.64
2023-05-21T08:32:42.951Z,38.68
2023-05-21T08:37:45.912Z,38.66
2023-05-21T08:42:50.165Z,38.50
2023-05-21T08:47:57.099Z,38.52
2023-05-21T08:53:01.416Z,38.50
2023-05-21T08:58:05.804Z,38.42
2023-05-21T09:03:11.563Z,38.38
2023-05-21T09:08:17.868Z,38.47
2023-05-21T09:13:21.729Z,38.41
2023-05-21T09:18:27.579Z,38.40
2023-05-21T09:23:30.538Z,38.33
2023-05-21T09:28:37.211Z,38.44
2023-05-21T09:33:47.501Z,38.46
2023-05-21T09:38:52.031Z,38.23
2023-05-21T09:44:00.178Z,38.52
2023-05-21T09:49:04.400Z,38.31
2023-05-21T09:54:07.303Z,38.22
2023-05-21T09:59:10.777Z,38.31
2023-05-21T10:04:15.293Z,38.21
2023-05-21T10:09:19.964Z,38.25
2023-05-21T10:14:24.681Z,38.31
2023-05-21T10:19:30.050Z,38.12
2023-05-21T10:24:33.209Z,38.28
2023-05-21T10:29:36.280Z,38.16
2023-05-21T10:34:40.710Z,38.15
2023-05-21T10:39:45.859Z,38.04
2023-05-21T10:45:03.826Z,38.21
2023-05-21T10:50:35.479Z,38.15
2023-05-21T10:55:48.049Z,38.07
2023-05-21T11:00:51.349Z,38.17
2023-05-21T11:05:56.590Z,38.05
2023-05-21T11:10:59.742Z,38.05
2023-05-21T11:16:09.068Z,38.12
2023-05-21T11:21:14.844Z,38.31
2023-05-21T11:26:18.118Z,38.24
2023-05-21T11:31:24.684Z,38.26
2023-05-21T11:36:29.094Z,38.26
2023-05-21T11:41:32.159Z,38.38
2023-05-21T11:46:35.287Z,38.22
2023-05-21T11:51:41.478Z,38.37
2023-05-21T11:56:44.499Z,38.29
2023-05-21T12:01:47.410Z,38.39
2023-05-21T12:06:51.957Z,38.39
2023-05-21T12:11:54.916Z,38.61
2023-05-21T12:16:58.850Z,38.60
2023-05-21T12:22:04.582Z,38.39
2023-05-21T12:27:10.393Z,38.88
2023-05-21T12:32:14.816Z,38.79
2023-05-21T12:37:21.932Z,38.74
2023-05-21T12:42:26.615Z,38.61
2023-05-21T12:47:29.650Z,38.92
2023-05-21T12:52:34.695Z,39.02
2023-05-21T12:57:39.412Z,39.05
2023-05-21T13:02:44.294Z,39.03
2023-05-21T13:07:51.596Z,39.08
2023-05-21T13:12:54.608Z,39.10
2023-05-21T13:17:58.722Z,39.05
2023-05-21T13:23:05.861Z,39.12
2023-05-21T13:28:10.444Z,39.46
2023-05-21T13:33:13.480Z,39.44
2023-05-21T13:38:17.761Z,39.49
2023-05-21T13:43:20.644Z,39.42
2023-05-21T13:48:23.528Z,39.43
2023-05-21T13:53:27.731Z,39.75
2023-05-21T13:58:34.475Z,39.89
2023-05-21T14:03:37.361Z,40.03
2023-05-21T14:08:41.578Z,39.97
2023-05-21T14:13:44.520Z,40.00
2023-05-21T14:18:47.453Z,39.93
2023-05-21T14:23:51.727Z,40.18
2023-05-21T14:28:54.579Z,40.07
2023-05-21T14:33:57.407Z,40.11
2023-05-21T14:39:01.664Z,40.39
2023-05-21T14:44:04.749Z,40.00
2023-05-21T14:49:07.683Z,40.35
2023-05-21T14:54:11.902Z,40.18
2023-05-21T14:59:14.801Z,40.34
2023-05-21T15:04:17.751Z,40.76
2023-05-21T15:09:22.090Z,40.31
2023-05-21T15:14:25.011Z,40.37
2023-05-21T15:19:27.956Z,40.42
2023-05-21T15:24:32.327Z,40.20
2023-05-21T15:29:35.286Z,40.29
2023-05-21T15:34:38.335Z,39.97
2023-05-21T15:39:43.099Z,40.07
2023-05-21T15:44:45.965Z,40.01
2023-05-21T15:49:48.868Z,39.89
2023-05-21T15:54:53.322Z,39.64
2023-05-21T15:59:56.352Z,38.77
2023-05-21T16:04:59.261Z,38.40
2023-05-21T16:10:03.521Z,38.49
2023-05-21T16:15:07.317Z,38.00
2023-05-21T16:20:10.766Z,38.17
2023-05-21T16:25:15.007Z,37.77
2023-05-21T16:30:18.039Z,37.61
2023-05-21T16:35:20.951Z,36.95
2023-05-21T16:40:25.178Z,35.46
2023-05-21T16:45:28.192Z,35.13
2023-05-21T16:50:31.385Z,35.37
2023-05-21T16:55:36.864Z,35.18
2023-05-21T17:00:40.102Z,35.65
2023-05-21T17:05:43.022Z,36.65
2023-05-21T17:10:47.222Z,35.39
2023-05-21T17:15:51.133Z,37.02
2023-05-21T17:20:55.953Z,37.96
2023-05-21T17:26:00.193Z,38.60
2023-05-21T17:31:03.069Z,38.69
2023-05-21T17:36:06.333Z,39.31
2023-05-21T17:41:10.539Z,39.57
2023-05-21T17:46:16.642Z,39.42
2023-05-21T17:51:19.550Z,39.88
2023-05-21T17:56:23.995Z,39.92
2023-05-21T18:01:27.037Z,40.29
2023-05-21T18:06:30.085Z,40.25
2023-05-21T18:11:34.381Z,40.59
2023-05-21T18:16:37.408Z,40.53
2023-05-21T18:21:40.865Z,40.89
2023-05-21T18:26:45.747Z,40.97
2023-05-21T18:31:49.185Z,40.89
2023-05-21T18:36:54.474Z,41.01
2023-05-21T18:42:11.948Z,41.38
2023-05-21T18:47:16.502Z,41.26
2023-05-21T18:52:19.416Z,41.51
2023-05-21T18:57:23.711Z,41.65
2023-05-21T19:02:28.111Z,41.72
2023-05-21T19:07:31.055Z,41.67
2023-05-21T19:12:36.309Z,42.10
2023-05-21T19:17:40.015Z,42.20
2023-05-21T19:22:42.949Z,42.15
2023-05-21T19:27:47.205Z,41.97
2023-05-21T19:32:50.209Z,42.33
2023-05-21T19:37:54.541Z,42.05
2023-05-21T19:42:58.729Z,42.07
2023-05-21T19:48:01.656Z,42.21
2023-05-21T19:53:04.562Z,42.18
2023-05-21T19:58:09.860Z,42.42
2023-05-21T20:03:13.426Z,42.37
2023-05-21T20:08:16.502Z,42.35
2023-05-21T20:13:23.809Z,42.45
2023-05-21T20:18:26.782Z,42.64
2023-05-21T20:23:29.610Z,42.62
2023-05-21T20:28:35.093Z,42.73
2023-05-21T20:33:40.037Z,42.58
2023-05-21T20:38:43.347Z,42.92
2023-05-21T20:43:47.584Z,42.98
2023-05-21T20:48:52.995Z,42.87
2023-05-21T20:53:56.080Z,43.08
2023-05-21T20:59:00.596Z,43.27
2023-05-21T21:04:03.591Z,43.13
2023-05-21T21:09:06.526Z,43.31
2023-05-21T21:14:10.948Z,43.38
2023-05-21T21:19:13.920Z,43.20
2023-05-21T21:24:19.829Z,43.29
2023-05-21T21:29:24.051Z,43.56
2023-05-21T21:34:26.955Z,43.35
2023-05-21T21:39:29.821Z,43.57
2023-05-21T21:44:34.642Z,43.26
2023-05-21T21:49:38.110Z,43.68
2023-05-21T21:54:41.636Z,43.45
2023-05-21T21:59:45.806Z,43.41
2023-05-21T22:04:48.826Z,43.54
2023-05-21T22:09:51.964Z,43.56
2023-05-21T22:14:56.952Z,43.86
2023-05-21T22:19:59.863Z,43.98
2023-05-21T22:25:03.158Z,44.14
2023-05-21T22:30:08.877Z,44.38
2023-05-21T22:35:12.488Z,44.26
2023-05-21T22:40:15.625Z,44.31
2023-05-21T22:45:22.110Z,44.65
2023-05-21T22:50:32.960Z,44.34
2023-05-21T22:55:36.215Z,44.63
2023-05-21T23:00:40.727Z,44.57
2023-05-21T23:05:43.870Z,44.51
2023-05-21T23:10:46.814Z,44.71
2023-05-21T23:15:51.466Z,44.26
2023-05-21T23:20:55.387Z,44.67
2023-05-21T23:25:59.009Z,44.45
2023-05-21T23:31:03.309Z,44.35
2023-05-21T23:36:06.894Z,44.69
2023-05-21T23:41:09.779Z,44.70
2023-05-21T23:46:14.063Z,44.45
2023-05-21T23:51:18.313Z,44.70
2023-05-21T23:56:21.687Z,44.72
